Buchanan, Tennessee
Current Conditions -  °F | °C
As of 3:15 PM on Friday 31 Oct 2014 (Local Time) from KPHT Reporting Station
Few Clouds Few Clouds  
Wind Chill: 40°   Ceiling: Unl
Heat Index: 46°   Visibility: 10mi
Dew Point: 27°   Wind: 14mph
Humidity: 46%   Direction: 330°NNW
Pressure: 30.12"   Gusts: NA
Location:  36.45°N, 88.14°W
Report Text: KPHT 312015Z AUTO 33012KT 10SM FEW050 08/M03 A3012 RMK
Loading
Personal Weather Stations






























Interactive Weather Map
Tropical Storm Tracking
New forecast layout! Learn more

10-Day Weather Forecast

Advertisements
Track Severe Weather on mobile